Terminal Aerodrome Forecast
Issued by NWS Quad Cities IA IL

Home | Current Version | Previous Version | Text Only | Print | Product List | Glossary On
Versions: 1 2 3 4 5 6 7 8 9 10 11 12 13 14 15 16 17 18 19 20 21
527
FTUS43 KDVN 212159 AAB
TAFMLI
TAF AMD
KMLI 212159Z 2122/2218 25007KT P6SM BKN010
      TEMPO 2122/2124 SCT010
     FM220300 VRB02KT 3SM BR OVC006
     FM220800 VRB03KT 1/2SM FG OVC003
     FM221600 35008KT 2SM BR OVC006=

USA.gov is the U.S. government's official web portal to all federal, state and local government web resources and services.